Time;durP1;ratioP1;P1;durP2;ratioP2;P2;SDS_P1;SDS_P2;PMS_P1;PMS_P2;Temp;Humidity;BMP_temperature;BMP_pressure;BME280_temperature;BME280_humidity;BME280_pressure;Samples;Min_cycle;Max_cycle;Signal;HPM_P1;HPM_P2
2024/04/02 00:00:43;;;;;;;40.25;6.35;;;;;;;;;;5014666;28;20046;-77
2024/04/02 00:03:11;;;;;;;50.50;6.80;;;;;;;;;;4997782;28;20046;-77
2024/04/02 00:05:39;;;;;;;43.75;4.90;;;;;;;;;;5014689;28;20045;-77
2024/04/02 00:08:08;;;;;;;32.58;5.80;;;;;;;;;;5014169;28;20041;-75
2024/04/02 00:10:36;;;;;;;46.80;6.40;;;;;;;;;;5014678;28;20250;-76
2024/04/02 00:13:02;;;;;;;28.02;4.95;;;;;;;;;;4998161;28;20373;-77
2024/04/02 00:15:28;;;;;;;47.45;5.95;;;;;;;;;;5013866;28;20038;-77
2024/04/02 00:17:54;;;;;;;26.67;4.35;;;;;;;;;;4998264;28;20126;-76
2024/04/02 00:20:22;;;;;;;35.92;5.05;;;;;;;;;;4997826;28;20396;-77
2024/04/02 00:22:48;;;;;;;33.28;5.65;;;;;;;;;;5014348;28;20054;-76
2024/04/02 00:25:14;;;;;;;27.33;5.45;;;;;;;;;;5013543;28;20481;-76
2024/04/02 00:27:40;;;;;;;39.05;5.60;;;;;;;;;;5013944;28;20469;-76
2024/04/02 00:30:06;;;;;;;33.28;4.28;;;;;;;;;;5013896;28;20040;-76
2024/04/02 00:32:32;;;;;;;34.08;4.90;;;;;;;;;;5014013;28;20052;-77
2024/04/02 00:34:58;;;;;;;35.10;5.32;;;;;;;;;;5014261;28;20129;-76
2024/04/02 00:37:24;;;;;;;33.90;5.35;;;;;;;;;;5013617;28;20451;-76
2024/04/02 00:39:50;;;;;;;36.42;5.00;;;;;;;;;;4997681;28;20050;-76
2024/04/02 00:42:19;;;;;;;27.60;4.88;;;;;;;;;;5013652;28;20049;-77
2024/04/02 00:44:44;;;;;;;;;;;;;;;;;;4981715;28;20439;-76
2024/04/02 00:47:12;;;;;;;33.88;5.80;;;;;;;;;;5013391;28;19921;-76
2024/04/02 00:49:40;;;;;;;30.40;4.30;;;;;;;;;;5013721;28;20042;-77
2024/04/02 00:52:06;;;;;;;39.88;6.28;;;;;;;;;;5013457;28;20469;-76
2024/04/02 00:54:34;;;;;;;32.20;4.88;;;;;;;;;;4997393;28;20064;-77
2024/04/02 00:57:00;;;;;;;21.48;4.85;;;;;;;;;;5012592;28;20050;-76
2024/04/02 00:59:26;;;;;;;35.75;5.05;;;;;;;;;;4996615;28;20368;-77
2024/04/02 01:01:52;;;;;;;25.05;4.22;;;;;;;;;;4997258;28;20100;-76
2024/04/02 01:04:19;;;;;;;17.20;3.55;;;;;;;;;;5013127;28;20482;-76
2024/04/02 01:06:46;;;;;;;20.30;4.88;;;;;;;;;;5013735;28;20091;-77
2024/04/02 01:09:13;;;;;;;26.77;4.93;;;;;;;;;;4996660;28;20046;-77
2024/04/02 01:11:40;;;;;;;28.75;4.20;;;;;;;;;;5013469;28;20041;-76
2024/04/02 01:14:06;;;;;;;32.97;5.00;;;;;;;;;;5013076;28;20045;-76
2024/04/02 01:16:32;;;;;;;38.13;5.10;;;;;;;;;;5013390;28;20076;-77
2024/04/02 01:18:57;;;;;;;30.27;4.30;;;;;;;;;;5013250;28;20034;-76
2024/04/02 01:21:23;;;;;;;28.73;4.25;;;;;;;;;;5012734;28;21197;-76
2024/04/02 01:23:49;;;;;;;26.50;5.05;;;;;;;;;;5013225;28;20476;-76
2024/04/02 01:26:15;;;;;;;27.80;4.60;;;;;;;;;;5012610;28;20470;-76
2024/04/02 01:28:40;;;;;;;33.97;5.50;;;;;;;;;;4996803;28;20129;-76
2024/04/02 01:31:06;;;;;;;31.83;4.68;;;;;;;;;;5012619;28;20038;-76
2024/04/02 01:33:32;;;;;;;32.00;4.82;;;;;;;;;;5012897;28;20046;-77
2024/04/02 01:35:58;;;;;;;33.67;4.57;;;;;;;;;;5012899;28;20041;-76
2024/04/02 01:38:24;;;;;;;27.90;5.03;;;;;;;;;;4996337;28;20045;-76
2024/04/02 01:40:51;;;;;;;32.95;5.13;;;;;;;;;;5013010;28;20464;-76
2024/04/02 01:43:16;;;;;;;36.15;4.53;;;;;;;;;;4996052;28;20056;-76
2024/04/02 01:45:42;;;;;;;30.67;4.97;;;;;;;;;;5012770;28;20397;-76
2024/04/02 01:48:08;;;;;;;33.65;5.10;;;;;;;;;;4995886;28;20144;-76
2024/04/02 01:50:34;;;;;;;35.72;5.45;;;;;;;;;;4996302;28;20045;-76
2024/04/02 01:52:59;;;;;;;33.88;5.05;;;;;;;;;;5012834;28;20104;-76
2024/04/02 01:55:25;;;;;;;48.35;5.60;;;;;;;;;;4995980;28;20437;-76
2024/04/02 01:57:51;;;;;;;26.77;5.20;;;;;;;;;;5012503;28;20049;-76
2024/04/02 02:00:18;;;;;;;35.00;5.50;;;;;;;;;;5028305;28;20042;-76
2024/04/02 02:02:44;;;;;;;38.80;5.55;;;;;;;;;;5012690;28;20048;-76
2024/04/02 02:05:10;;;;;;;27.10;4.10;;;;;;;;;;4995742;28;20054;-76
2024/04/02 02:07:35;;;;;;;33.33;6.07;;;;;;;;;;5012224;28;20061;-76
2024/04/02 02:10:01;;;;;;;44.63;5.93;;;;;;;;;;5012454;28;20046;-76
2024/04/02 02:12:27;;;;;;;31.92;4.55;;;;;;;;;;5011850;28;20042;-76
2024/04/02 02:14:53;;;;;;;42.63;5.97;;;;;;;;;;4996099;28;20045;-76
2024/04/02 02:17:19;;;;;;;34.72;5.00;;;;;;;;;;4995725;28;20432;-76
2024/04/02 02:19:44;;;;;;;36.15;5.78;;;;;;;;;;5012368;28;20408;-76
2024/04/02 02:22:10;;;;;;;40.80;5.75;;;;;;;;;;5011621;28;20065;-76
2024/04/02 02:24:36;;;;;;;38.67;5.18;;;;;;;;;;5012215;28;20038;-76
2024/04/02 02:27:02;;;;;;;35.53;5.72;;;;;;;;;;4995728;28;20152;-76
2024/04/02 02:29:28;;;;;;;27.90;5.63;;;;;;;;;;5011566;28;20046;-76
2024/04/02 02:31:57;;;;;;;37.20;5.03;;;;;;;;;;4995646;28;20034;-77
2024/04/02 02:34:23;;;;;;;;;;;;;;;;;;5012026;28;20532;-76
2024/04/02 02:36:50;;;;;;;37.10;5.45;;;;;;;;;;5012114;28;20056;-76
2024/04/02 02:39:16;;;;;;;36.60;5.43;;;;;;;;;;5011554;28;20054;-76
2024/04/02 02:41:45;;;;;;;39.20;5.05;;;;;;;;;;5011803;28;20497;-76
2024/04/02 02:44:12;;;;;;;41.35;5.53;;;;;;;;;;5011501;28;20056;-76
2024/04/02 02:46:38;;;;;;;40.35;5.95;;;;;;;;;;5011849;28;20042;-76
2024/04/02 02:49:03;;;;;;;44.13;6.82;;;;;;;;;;5011500;28;20056;-76
2024/04/02 02:51:30;;;;;;;44.17;5.05;;;;;;;;;;5011811;28;20136;-76
2024/04/02 02:53:56;;;;;;;43.85;4.82;;;;;;;;;;5011544;28;20037;-76
2024/04/02 02:56:22;;;;;;;35.03;4.43;;;;;;;;;;5011309;28;20072;-76
2024/04/02 02:58:51;;;;;;;33.92;5.25;;;;;;;;;;4995301;28;20488;-76
2024/04/02 03:01:17;;;;;;;32.35;4.10;;;;;;;;;;4995113;28;20042;-76
2024/04/02 03:03:51;;;;;;;27.42;4.65;;;;;;;;;;4995671;28;20555;-75
2024/04/02 03:06:18;;;;;;;33.63;4.05;;;;;;;;;;5011322;28;20049;-76
2024/04/02 03:08:44;;;;;;;24.30;4.72;;;;;;;;;;5011886;28;20384;-76
2024/04/02 03:11:10;;;;;;;27.85;4.72;;;;;;;;;;4994636;28;20042;-76
2024/04/02 03:13:36;;;;;;;37.20;6.10;;;;;;;;;;5011932;28;20179;-76
2024/04/02 03:16:03;;;;;;;25.40;4.05;;;;;;;;;;5011633;28;20042;-76
2024/04/02 03:18:30;;;;;;;36.40;4.57;;;;;;;;;;4987335;28;20041;-76
2024/04/02 03:20:56;;;;;;;30.08;4.93;;;;;;;;;;4998659;28;20034;-76
2024/04/02 03:23:22;;;;;;;48.72;6.07;;;;;;;;;;5014938;28;20052;-76
2024/04/02 03:25:53;;;;;;;30.50;4.55;;;;;;;;;;5015414;28;20120;-76
2024/04/02 03:28:19;;;;;;;37.13;4.82;;;;;;;;;;4998399;28;20088;-76
2024/04/02 03:30:46;;;;;;;36.97;5.13;;;;;;;;;;5015459;28;20044;-76
2024/04/02 03:33:12;;;;;;;41.90;4.28;;;;;;;;;;4998586;28;20050;-76
2024/04/02 03:35:37;;;;;;;31.83;4.43;;;;;;;;;;5015407;28;20399;-76
2024/04/02 03:38:04;;;;;;;37.58;4.65;;;;;;;;;;4982380;28;20034;-75
2024/04/02 03:40:34;;;;;;;36.10;4.68;;;;;;;;;;5015208;28;20048;-76
2024/04/02 03:43:00;;;;;;;30.20;4.43;;;;;;;;;;5015263;28;20042;-75
2024/04/02 03:45:26;;;;;;;23.45;3.67;;;;;;;;;;4982003;28;20166;-76
2024/04/02 03:47:52;;;;;;;32.00;4.53;;;;;;;;;;4998440;28;20038;-76
2024/04/02 03:50:17;;;;;;;33.65;4.05;;;;;;;;;;4998238;28;20443;-76
2024/04/02 03:52:43;;;;;;;36.35;4.63;;;;;;;;;;4998383;28;20128;-76
2024/04/02 03:55:09;;;;;;;26.63;5.10;;;;;;;;;;5014669;28;20520;-76
2024/04/02 03:57:35;;;;;;;38.83;4.13;;;;;;;;;;4998513;28;20494;-76
2024/04/02 04:00:00;;;;;;;34.72;3.92;;;;;;;;;;4998205;28;20451;-75
2024/04/02 04:02:26;;;;;;;34.25;3.65;;;;;;;;;;5014375;28;20048;-76
2024/04/02 04:04:52;;;;;;;27.50;3.30;;;;;;;;;;5014676;28;20129;-76
2024/04/02 04:07:18;;;;;;;28.80;3.97;;;;;;;;;;5013937;28;20072;-76
2024/04/02 04:09:46;;;;;;;30.90;4.50;;;;;;;;;;4998257;28;20068;-76
2024/04/02 04:12:12;;;;;;;44.33;4.00;;;;;;;;;;5014064;28;20053;-76
2024/04/02 04:14:38;;;;;;;26.77;2.83;;;;;;;;;;5014343;28;20061;-76
2024/04/02 04:17:04;;;;;;;30.10;3.80;;;;;;;;;;4998068;28;20038;-76
2024/04/02 04:19:30;;;;;;;25.27;4.50;;;;;;;;;;5014275;28;20049;-76
2024/04/02 04:21:56;;;;;;;27.83;3.65;;;;;;;;;;5014229;28;20041;-76
2024/04/02 04:24:24;;;;;;;25.65;3.75;;;;;;;;;;5014070;28;20492;-76
2024/04/02 04:26:50;;;;;;;33.70;4.53;;;;;;;;;;5013978;28;20038;-76
2024/04/02 04:29:16;;;;;;;38.85;4.55;;;;;;;;;;4997158;28;20065;-76
2024/04/02 04:31:48;;;;;;;30.70;4.15;;;;;;;;;;4981525;28;20077;-76
2024/04/02 04:34:14;;;;;;;26.95;4.45;;;;;;;;;;5013933;28;20049;-76
2024/04/02 04:36:40;;;;;;;25.27;4.30;;;;;;;;;;4981160;28;20729;-79
2024/04/02 04:39:08;;;;;;;39.33;4.45;;;;;;;;;;5013601;28;20046;-77
2024/04/02 04:41:37;;;;;;;37.63;5.43;;;;;;;;;;4997836;28;20048;-76
2024/04/02 04:44:02;;;;;;;29.08;4.07;;;;;;;;;;4997622;28;20033;-76
2024/04/02 04:46:28;;;;;;;33.63;4.15;;;;;;;;;;4997108;28;20038;-81
2024/04/02 04:48:54;;;;;;;25.65;3.47;;;;;;;;;;5013905;28;20038;-77
2024/04/02 04:51:20;;;;;;;28.70;5.30;;;;;;;;;;5013346;28;20358;-77
2024/04/02 04:53:46;;;;;;;24.40;2.70;;;;;;;;;;5013855;28;20373;-77
2024/04/02 04:56:12;;;;;;;40.00;4.28;;;;;;;;;;4997301;28;20193;-77
2024/04/02 04:58:38;;;;;;;25.10;4.97;;;;;;;;;;4997256;28;20440;-77
2024/04/02 05:01:04;;;;;;;27.45;4.15;;;;;;;;;;4996727;28;20030;-77
2024/04/02 05:03:31;;;;;;;25.52;3.58;;;;;;;;;;5013424;28;20049;-77
2024/04/02 05:06:03;;;;;;;28.73;4.53;;;;;;;;;;5013461;28;20044;-77
2024/04/02 05:08:31;;;;;;;31.65;4.10;;;;;;;;;;4996876;28;20037;-77
2024/04/02 05:10:57;;;;;;;26.60;4.38;;;;;;;;;;5013496;28;20067;-77
2024/04/02 05:13:24;;;;;;;23.67;2.80;;;;;;;;;;5013029;28;20049;-76
2024/04/02 05:15:49;;;;;;;25.40;3.83;;;;;;;;;;4996948;28;20388;-76
2024/04/02 05:18:15;;;;;;;24.98;4.20;;;;;;;;;;5012818;28;20132;-77
2024/04/02 05:20:42;;;;;;;30.13;4.30;;;;;;;;;;4996653;28;20049;-77
2024/04/02 05:23:08;;;;;;;27.45;4.35;;;;;;;;;;5012418;28;20042;-76
2024/04/02 05:25:34;;;;;;;28.02;4.15;;;;;;;;;;5013305;28;20038;-77
2024/04/02 05:28:00;;;;;;;24.85;3.42;;;;;;;;;;4996617;28;20484;-77
2024/04/02 05:30:26;;;;;;;31.50;4.03;;;;;;;;;;5012658;28;20037;-77
2024/04/02 05:32:52;;;;;;;40.30;4.25;;;;;;;;;;5013044;28;20095;-76
2024/04/02 05:35:20;;;;;;;34.17;4.93;;;;;;;;;;4995996;28;20046;-77
2024/04/02 05:37:45;;;;;;;32.10;3.88;;;;;;;;;;5012979;28;20034;-77
2024/04/02 05:40:11;;;;;;;39.83;5.90;;;;;;;;;;5012400;28;20095;-77
2024/04/02 05:42:37;;;;;;;30.27;5.05;;;;;;;;;;4995745;28;20054;-77
2024/04/02 05:45:03;;;;;;;37.40;4.70;;;;;;;;;;5013322;28;20042;-77
2024/04/02 05:47:29;;;;;;;34.08;4.45;;;;;;;;;;5012008;28;20384;-77
2024/04/02 05:49:55;;;;;;;26.42;3.60;;;;;;;;;;5012671;28;20042;-77
2024/04/02 05:52:20;;;;;;;34.50;3.53;;;;;;;;;;5012284;28;20044;-77
2024/04/02 05:54:46;;;;;;;31.33;3.20;;;;;;;;;;5012469;28;20048;-78
2024/04/02 05:57:15;;;;;;;24.10;2.83;;;;;;;;;;5012320;28;20045;-77
2024/04/02 05:59:45;;;;;;;;;;;;;;;;;;5011552;28;20038;-77
2024/04/02 06:02:10;;;;;;;25.30;2.88;;;;;;;;;;5023122;28;20386;-80
2024/04/02 06:04:36;;;;;;;26.52;3.83;;;;;;;;;;4992764;28;20042;-78
2024/04/02 06:07:02;;;;;;;30.95;4.45;;;;;;;;;;4992892;28;20126;-81
2024/04/02 06:09:28;;;;;;;29.00;4.05;;;;;;;;;;5008876;28;20046;-79
2024/04/02 06:11:53;;;;;;;29.80;4.20;;;;;;;;;;4992871;28;20389;-78
2024/04/02 06:14:19;;;;;;;22.58;3.47;;;;;;;;;;4992606;28;20093;-79
2024/04/02 06:16:45;;;;;;;29.77;4.07;;;;;;;;;;4992705;28;20038;-79
2024/04/02 06:19:11;;;;;;;37.47;3.67;;;;;;;;;;5008409;28;20046;-79
2024/04/02 06:21:36;;;;;;;31.17;4.15;;;;;;;;;;4992819;28;20046;-78
2024/04/02 06:24:02;;;;;;;21.35;3.25;;;;;;;;;;4976388;28;20049;-77
2024/04/02 06:26:28;;;;;;;32.83;4.50;;;;;;;;;;5004176;28;20729;-78
2024/04/02 06:28:54;;;;;;;26.17;4.18;;;;;;;;;;4995871;28;20087;-78
2024/04/02 06:31:19;;;;;;;23.35;3.22;;;;;;;;;;5011613;28;20054;-79
2024/04/02 06:33:45;;;;;;;22.48;3.63;;;;;;;;;;4995744;28;20034;-78
2024/04/02 06:36:12;;;;;;;30.25;3.95;;;;;;;;;;4995379;28;20440;-78
2024/04/02 06:38:38;;;;;;;20.45;3.30;;;;;;;;;;4995597;28;20554;-78
2024/04/02 06:41:04;;;;;;;26.27;3.35;;;;;;;;;;4995453;28;20042;-76
2024/04/02 06:43:29;;;;;;;20.05;3.85;;;;;;;;;;5011982;28;20054;-78
2024/04/02 06:45:56;;;;;;;24.35;2.85;;;;;;;;;;4995543;28;20042;-78
2024/04/02 06:48:23;;;;;;;24.30;3.65;;;;;;;;;;5011502;28;20056;-78
2024/04/02 06:51:03;;;;;;;23.83;3.55;;;;;;;;;;5012048;28;20042;-78
2024/04/02 06:53:30;;;;;;;25.15;3.10;;;;;;;;;;4995098;28;20045;-77
2024/04/02 06:55:56;;;;;;;16.85;3.05;;;;;;;;;;4999017;28;20042;-78
2024/04/02 06:58:22;;;;;;;34.20;4.53;;;;;;;;;;5015374;28;20132;-77
2024/04/02 07:00:48;;;;;;;24.10;3.42;;;;;;;;;;5015755;28;20050;-78
2024/04/02 07:03:16;;;;;;;30.35;3.85;;;;;;;;;;5015368;28;20419;-78
2024/04/02 07:05:42;;;;;;;21.95;3.17;;;;;;;;;;5015646;28;20472;-78
2024/04/02 07:08:08;;;;;;;31.83;3.70;;;;;;;;;;5015085;28;20684;-78
2024/04/02 07:10:34;;;;;;;29.67;3.58;;;;;;;;;;4983291;28;20041;-78
2024/04/02 07:13:01;;;;;;;24.90;3.72;;;;;;;;;;4983222;28;20042;-78
2024/04/02 07:15:27;;;;;;;33.28;3.83;;;;;;;;;;5015386;28;20041;-78
2024/04/02 07:17:52;;;;;;;29.05;3.97;;;;;;;;;;5015463;28;20034;-78
2024/04/02 07:20:18;;;;;;;26.60;3.85;;;;;;;;;;5015454;28;20392;-78
2024/04/02 07:22:44;;;;;;;26.40;3.42;;;;;;;;;;5015424;28;20435;-78
2024/04/02 07:25:13;;;;;;;31.35;4.18;;;;;;;;;;5014895;28;20045;-78
2024/04/02 07:27:40;;;;;;;26.13;3.95;;;;;;;;;;5015262;28;20044;-78
2024/04/02 07:30:11;;;;;;;28.38;4.47;;;;;;;;;;5014843;28;20042;-77
2024/04/02 07:32:37;;;;;;;28.08;3.55;;;;;;;;;;4999129;28;20431;-78
2024/04/02 07:35:03;;;;;;;42.65;4.57;;;;;;;;;;4982840;28;20038;-78
2024/04/02 07:37:29;;;;;;;26.52;3.80;;;;;;;;;;5014986;28;20113;-78
2024/04/02 07:39:55;;;;;;;36.53;3.75;;;;;;;;;;4982568;28;20392;-78
2024/04/02 07:42:21;;;;;;;25.55;3.80;;;;;;;;;;4998580;28;20061;-78
2024/04/02 07:44:46;;;;;;;20.15;3.45;;;;;;;;;;4998766;28;20044;-78
2024/04/02 07:47:12;;;;;;;30.73;4.60;;;;;;;;;;5014429;28;20050;-77
2024/04/02 07:49:38;;;;;;;24.00;3.30;;;;;;;;;;4998827;28;20073;-77
2024/04/02 07:52:04;;;;;;;26.08;3.90;;;;;;;;;;4998207;28;20037;-78
2024/04/02 07:54:30;;;;;;;27.48;3.38;;;;;;;;;;5014850;28;20050;-78
2024/04/02 07:56:56;;;;;;;19.00;3.40;;;;;;;;;;5014972;28;20049;-78
2024/04/02 07:59:23;;;;;;;27.27;3.38;;;;;;;;;;4997894;28;20057;-78
2024/04/02 08:01:49;;;;;;;21.23;3.17;;;;;;;;;;4998345;28;20396;-78
2024/04/02 08:04:15;;;;;;;20.92;2.70;;;;;;;;;;4997815;28;20064;-78
2024/04/02 08:06:42;;;;;;;12.65;2.53;;;;;;;;;;4997650;28;20048;-78
2024/04/02 08:09:11;;;;;;;11.82;2.13;;;;;;;;;;4997779;28;20477;-78
2024/04/02 08:11:37;;;;;;;11.15;2.05;;;;;;;;;;4998160;28;20049;-78
2024/04/02 08:14:03;;;;;;;11.35;1.83;;;;;;;;;;5014474;28;20091;-78
2024/04/02 08:16:30;;;;;;;14.95;1.73;;;;;;;;;;5014551;28;20476;-78
2024/04/02 08:18:55;;;;;;;10.70;2.22;;;;;;;;;;5014510;28;20044;-78
2024/04/02 08:21:21;;;;;;;8.90;2.00;;;;;;;;;;5013900;28;20042;-77
2024/04/02 08:23:47;;;;;;;12.02;1.55;;;;;;;;;;5014258;28;20404;-78
2024/04/02 08:26:13;;;;;;;5.07;1.55;;;;;;;;;;4997355;28;20836;-78
2024/04/02 08:28:38;;;;;;;12.20;1.67;;;;;;;;;;5014187;28;20121;-78
2024/04/02 08:31:04;;;;;;;9.77;2.65;;;;;;;;;;5013758;28;20443;-79
2024/04/02 08:33:30;;;;;;;11.68;1.95;;;;;;;;;;4997734;28;20041;-78
2024/04/02 08:35:55;;;;;;;17.48;2.40;;;;;;;;;;4997744;28;20042;-78
2024/04/02 08:38:21;;;;;;;18.20;2.63;;;;;;;;;;4997572;28;20045;-77
2024/04/02 08:40:51;;;;;;;15.45;2.85;;;;;;;;;;5014038;28;20037;-78
2024/04/02 08:43:18;;;;;;;22.10;3.03;;;;;;;;;;4997098;28;20033;-78
2024/04/02 08:45:45;;;;;;;24.15;3.78;;;;;;;;;;5014210;28;20056;-78
2024/04/02 08:48:15;;;;;;;28.67;4.53;;;;;;;;;;5013307;28;20042;-78
2024/04/02 08:50:41;;;;;;;26.10;5.28;;;;;;;;;;5014026;28;20048;-78
2024/04/02 08:53:07;;;;;;;26.17;3.92;;;;;;;;;;4997204;28;20038;-78
2024/04/02 08:55:39;;;;;;;28.25;4.78;;;;;;;;;;5013876;28;20370;-78
2024/04/02 08:58:05;;;;;;;36.90;5.90;;;;;;;;;;4996795;28;20095;-78
2024/04/02 09:00:31;;;;;;;42.60;6.05;;;;;;;;;;5013396;28;20523;-78
2024/04/02 09:02:57;;;;;;;42.13;5.65;;;;;;;;;;4997690;28;20070;-77
2024/04/02 09:05:23;;;;;;;37.08;5.47;;;;;;;;;;5013069;28;20072;-78
2024/04/02 09:07:49;;;;;;;51.22;7.38;;;;;;;;;;4996932;28;20041;-78
2024/04/02 09:10:15;;;;;;;43.30;5.75;;;;;;;;;;5013430;28;20050;-77
2024/04/02 09:12:41;;;;;;;41.55;5.45;;;;;;;;;;5013388;28;20124;-78
2024/04/02 09:15:07;;;;;;;42.63;6.63;;;;;;;;;;5012955;28;20485;-77
2024/04/02 09:17:33;;;;;;;41.00;6.38;;;;;;;;;;4996111;28;20387;-78
2024/04/02 09:20:00;;;;;;;40.35;6.35;;;;;;;;;;4996960;28;20042;-78
2024/04/02 09:22:25;;;;;;;43.42;5.85;;;;;;;;;;4996477;28;20038;-78
2024/04/02 09:24:51;;;;;;;54.10;7.63;;;;;;;;;;4996851;28;20134;-78
2024/04/02 09:27:18;;;;;;;47.03;6.25;;;;;;;;;;4996189;28;20049;-78
2024/04/02 09:29:44;;;;;;;49.47;6.35;;;;;;;;;;5013145;28;20038;-78
2024/04/02 09:32:10;;;;;;;47.58;6.07;;;;;;;;;;4996414;28;20046;-78
2024/04/02 09:34:37;;;;;;;58.47;7.28;;;;;;;;;;5013179;28;20037;-78
2024/04/02 09:37:20;;;;;;;38.72;6.88;;;;;;;;;;5012562;28;20044;-78
2024/04/02 09:39:47;;;;;;;47.63;7.00;;;;;;;;;;5013118;28;20042;-77
2024/04/02 09:42:13;;;;;;;47.35;6.50;;;;;;;;;;4996106;28;20371;-78
2024/04/02 09:44:40;;;;;;;55.00;7.22;;;;;;;;;;5012922;28;20045;-78
2024/04/02 09:47:06;;;;;;;46.65;7.20;;;;;;;;;;4995915;28;20053;-78
2024/04/02 09:49:34;;;;;;;40.95;5.78;;;;;;;;;;4996487;28;20473;-78
2024/04/02 09:52:02;;;;;;;47.85;5.72;;;;;;;;;;5012518;28;20049;-78
2024/04/02 09:54:30;;;;;;;47.20;6.38;;;;;;;;;;4995984;28;20068;-78
2024/04/02 09:57:04;;;;;;;45.08;6.55;;;;;;;;;;5012633;28;20073;-78
2024/04/02 09:59:30;;;;;;;48.40;6.65;;;;;;;;;;5012128;28;20048;-77
2024/04/02 10:01:57;;;;;;;56.25;6.38;;;;;;;;;;5012613;28;20116;-77
2024/04/02 10:04:25;;;;;;;50.38;5.70;;;;;;;;;;5012233;28;20050;-78
2024/04/02 10:06:56;;;;;;;46.88;6.75;;;;;;;;;;5012509;28;20042;-77
2024/04/02 10:09:22;;;;;;;43.88;6.57;;;;;;;;;;5012107;28;20046;-78
2024/04/02 10:11:48;;;;;;;50.35;6.15;;;;;;;;;;4996062;28;20053;-78
2024/04/02 10:14:16;;;;;;;45.42;6.60;;;;;;;;;;5012008;28;20616;-78
2024/04/02 10:16:44;;;;;;;50.50;5.73;;;;;;;;;;5012343;28;20041;-78
2024/04/02 10:19:22;;;;;;;37.20;5.95;;;;;;;;;;5012029;28;20049;-79
2024/04/02 10:21:48;;;;;;;28.25;5.30;;;;;;;;;;4995873;28;20048;-78
2024/04/02 10:24:15;;;;;;;43.47;5.10;;;;;;;;;;5011863;28;20038;-78
2024/04/02 10:26:42;;;;;;;39.83;6.05;;;;;;;;;;5011981;28;20046;-77
2024/04/02 10:29:08;;;;;;;30.30;4.95;;;;;;;;;;4975720;28;20046;-78
2024/04/02 10:31:39;;;;;;;35.58;5.35;;;;;;;;;;4992616;28;20085;-78
2024/04/02 10:34:10;;;;;;;44.33;5.68;;;;;;;;;;4992129;28;20125;-79
2024/04/02 10:36:37;;;;;;;36.75;6.13;;;;;;;;;;5008540;28;20045;-78
2024/04/02 10:39:03;;;;;;;41.72;6.40;;;;;;;;;;4992462;28;20038;-78
2024/04/02 10:41:33;;;;;;;28.77;4.93;;;;;;;;;;4992366;28;20408;-79
2024/04/02 10:43:59;;;;;;;40.05;8.45;;;;;;;;;;4992294;28;20049;-78
2024/04/02 10:46:26;;;;;;;37.58;5.75;;;;;;;;;;4991829;28;20039;-79
2024/04/02 10:48:55;;;;;;;34.72;6.28;;;;;;;;;;4976192;28;20400;-77
2024/04/02 10:51:21;;;;;;;41.00;6.07;;;;;;;;;;4992144;28;20038;-78
2024/04/02 10:53:47;;;;;;;34.50;5.30;;;;;;;;;;5002334;28;20041;-78
2024/04/02 10:56:14;;;;;;;27.40;4.63;;;;;;;;;;5007131;28;20389;-78
2024/04/02 10:58:40;;;;;;;37.45;5.85;;;;;;;;;;5010071;28;20046;-78
2024/04/02 11:01:06;;;;;;;30.10;5.05;;;;;;;;;;4993466;28;20042;-78
2024/04/02 11:03:31;;;;;;;36.25;4.78;;;;;;;;;;5009795;28;20050;-77
2024/04/02 11:05:57;;;;;;;31.15;5.82;;;;;;;;;;5010398;28;20476;-78
2024/04/02 11:08:25;;;;;;;30.92;4.75;;;;;;;;;;4993521;28;20038;-78
2024/04/02 11:10:50;;;;;;;37.03;4.28;;;;;;;;;;5010113;28;20392;-78
2024/04/02 11:13:26;;;;;;;29.27;4.40;;;;;;;;;;5009674;28;20157;-78
2024/04/02 11:15:52;;;;;;;37.97;5.35;;;;;;;;;;5010107;28;20037;-78
2024/04/02 11:18:26;;;;;;;31.05;5.30;;;;;;;;;;5009737;28;20045;-78
2024/04/02 11:21:00;;;;;;;28.33;3.72;;;;;;;;;;5010089;28;20046;-78
2024/04/02 11:26:15;;;;;;;23.00;4.18;;;;;;;;;;5009221;28;20473;-78
2024/04/02 11:28:44;;;;;;;29.58;3.33;;;;;;;;;;4993502;28;20052;-81
2024/04/02 11:31:11;;;;;;;29.23;4.10;;;;;;;;;;4984718;28;20049;-78
2024/04/02 11:33:40;;;;;;;32.22;3.88;;;;;;;;;;4990384;28;20046;-78
2024/04/02 11:36:07;;;;;;;27.10;3.85;;;;;;;;;;4974041;28;20048;-78
2024/04/02 11:38:39;;;;;;;29.20;3.85;;;;;;;;;;4975923;28;20523;-78
2024/04/02 11:41:09;;;;;;;24.38;4.13;;;;;;;;;;4977342;28;20048;-77
2024/04/02 11:43:35;;;;;;;27.27;4.03;;;;;;;;;;5012234;28;20542;-78
2024/04/02 11:46:03;;;;;;;30.80;4.07;;;;;;;;;;4995415;28;20060;-78
2024/04/02 11:48:29;;;;;;;26.05;4.85;;;;;;;;;;4978917;28;20034;-78
2024/04/02 11:50:55;;;;;;;28.52;4.35;;;;;;;;;;4995650;28;20051;-78
2024/04/02 11:53:22;;;;;;;42.88;4.80;;;;;;;;;;4994860;28;20425;-78
2024/04/02 11:55:50;;;;;;;30.88;4.47;;;;;;;;;;4963175;28;20046;-78
2024/04/02 12:01:02;;;;;;;28.35;3.63;;;;;;;;;;4978819;28;20425;-78
2024/04/02 12:03:29;;;;;;;39.38;4.97;;;;;;;;;;4978725;28;20043;-78
2024/04/02 12:05:56;;;;;;;31.73;5.47;;;;;;;;;;4979007;28;20355;-79
2024/04/02 12:08:22;;;;;;;37.33;5.13;;;;;;;;;;4994820;28;20050;-77
2024/04/02 12:10:48;;;;;;;45.53;5.03;;;;;;;;;;4995102;28;20053;-78
2024/04/02 12:13:14;;;;;;;30.63;4.80;;;;;;;;;;4994552;28;20125;-79
2024/04/02 12:15:39;;;;;;;39.60;5.05;;;;;;;;;;4995207;28;20038;-78
2024/04/02 12:18:06;;;;;;;42.85;5.93;;;;;;;;;;4978200;28;20088;-78
2024/04/02 12:20:31;;;;;;;34.58;5.05;;;;;;;;;;4994986;28;20052;-78
2024/04/02 12:22:58;;;;;;;30.00;3.70;;;;;;;;;;4994862;28;20042;-78
2024/04/02 12:25:24;;;;;;;21.05;3.55;;;;;;;;;;4997636;28;20980;-78
2024/04/02 12:27:56;;;;;;;25.08;3.83;;;;;;;;;;5014001;28;20046;-78
2024/04/02 12:30:22;;;;;;;24.42;3.70;;;;;;;;;;4997729;28;20042;-78
2024/04/02 12:32:48;;;;;;;28.65;3.85;;;;;;;;;;5014296;28;20547;-78
2024/04/02 12:35:17;;;;;;;28.33;3.55;;;;;;;;;;5013636;28;20050;-79
2024/04/02 12:37:43;;;;;;;29.05;3.95;;;;;;;;;;5014165;28;20041;-78
2024/04/02 12:40:11;;;;;;;29.77;3.10;;;;;;;;;;5013599;28;20085;-79
2024/04/02 12:42:37;;;;;;;27.85;4.05;;;;;;;;;;5014089;28;20048;-79
2024/04/02 12:45:06;;;;;;;31.05;4.13;;;;;;;;;;5014046;28;20041;-79
2024/04/02 12:47:33;;;;;;;28.77;3.83;;;;;;;;;;5013590;28;20483;-79
2024/04/02 12:49:59;;;;;;;21.83;3.75;;;;;;;;;;4997564;28;20197;-79
2024/04/02 12:52:25;;;;;;;19.88;2.85;;;;;;;;;;5012250;28;20042;-78
2024/04/02 12:54:52;;;;;;;16.02;2.78;;;;;;;;;;5013829;28;20484;-78
2024/04/02 12:57:18;;;;;;;15.48;2.58;;;;;;;;;;4997075;28;20052;-79
2024/04/02 12:59:43;;;;;;;19.05;3.00;;;;;;;;;;5013643;28;20038;-78
2024/04/02 13:02:09;;;;;;;25.10;2.90;;;;;;;;;;5013222;28;20615;-78
2024/04/02 13:04:35;;;;;;;20.70;2.90;;;;;;;;;;4997273;28;20034;-78
2024/04/02 13:07:01;;;;;;;17.17;2.63;;;;;;;;;;4997425;28;20058;-78
2024/04/02 13:09:27;;;;;;;16.38;2.80;;;;;;;;;;5013017;28;20060;-78
2024/04/02 13:11:53;;;;;;;16.80;2.47;;;;;;;;;;4997251;28;20045;-78
2024/04/02 13:14:18;;;;;;;16.30;2.65;;;;;;;;;;5013108;28;20396;-79
2024/04/02 13:16:44;;;;;;;17.98;2.25;;;;;;;;;;5013365;28;20065;-78
2024/04/02 13:19:10;;;;;;;14.90;2.67;;;;;;;;;;5012794;28;20069;-79
2024/04/02 13:21:37;;;;;;;23.17;2.78;;;;;;;;;;4997095;28;20042;-79
2024/04/02 13:24:05;;;;;;;20.77;3.13;;;;;;;;;;5013384;28;20050;-79
2024/04/02 13:26:31;;;;;;;18.30;3.53;;;;;;;;;;5012872;28;20042;-79
2024/04/02 13:29:04;;;;;;;17.63;2.55;;;;;;;;;;5013016;28;20053;-79
2024/04/02 13:31:30;;;;;;;16.77;3.47;;;;;;;;;;4996599;28;20095;-79
2024/04/02 13:33:57;;;;;;;24.00;4.55;;;;;;;;;;5013265;28;20046;-79
2024/04/02 13:36:24;;;;;;;26.35;2.90;;;;;;;;;;5012706;28;20400;-79
2024/04/02 13:38:52;;;;;;;28.10;3.33;;;;;;;;;;4996672;28;20042;-79
2024/04/02 13:41:19;;;;;;;20.53;3.70;;;;;;;;;;5012584;28;20388;-79
2024/04/02 13:43:46;;;;;;;31.73;3.88;;;;;;;;;;5012851;28;20042;-79
2024/04/02 13:46:13;;;;;;;23.60;4.28;;;;;;;;;;5012560;28;20100;-79
2024/04/02 13:48:40;;;;;;;36.03;4.10;;;;;;;;;;4996370;28;20052;-79
2024/04/02 13:51:06;;;;;;;28.05;3.72;;;;;;;;;;5012249;28;20042;-79
2024/04/02 13:53:33;;;;;;;36.00;4.32;;;;;;;;;;5012710;28;20476;-78
2024/04/02 13:56:00;;;;;;;26.90;3.75;;;;;;;;;;5012695;28;20057;-79
2024/04/02 13:58:26;;;;;;;31.90;4.38;;;;;;;;;;5012338;28;20038;-79
2024/04/02 14:00:52;;;;;;;27.73;4.82;;;;;;;;;;4996272;28;20052;-79
2024/04/02 14:03:18;;;;;;;31.25;4.43;;;;;;;;;;5011722;28;20579;-79
2024/04/02 14:05:44;;;;;;;34.05;4.38;;;;;;;;;;5012753;28;20042;-79
2024/04/02 14:08:11;;;;;;;34.10;4.30;;;;;;;;;;4995781;28;20041;-78
2024/04/02 14:10:37;;;;;;;36.75;4.70;;;;;;;;;;5012567;28;20042;-79
2024/04/02 14:13:10;;;;;;;32.47;4.70;;;;;;;;;;5012446;28;20048;-78
2024/04/02 14:15:39;;;;;;;34.17;4.80;;;;;;;;;;5012184;28;20041;-79
2024/04/02 14:18:05;;;;;;;31.13;5.15;;;;;;;;;;5012204;28;20048;-79
2024/04/02 14:20:32;;;;;;;39.90;5.40;;;;;;;;;;4996021;28;20042;-79
2024/04/02 14:22:58;;;;;;;34.80;5.80;;;;;;;;;;5012133;28;20045;-78
2024/04/02 14:25:24;;;;;;;31.58;3.72;;;;;;;;;;5011810;28;20358;-79
2024/04/02 14:27:52;;;;;;;32.55;4.90;;;;;;;;;;4995520;28;20042;-79
2024/04/02 14:30:18;;;;;;;35.22;3.95;;;;;;;;;;4995501;28;20038;-79
2024/04/02 14:32:44;;;;;;;27.73;3.97;;;;;;;;;;4995768;28;20045;-80